This is the latest recevied weather packets stored in our database for station/object K4VEB. If no packets are shown the sender has not sent any weather packets the latest 10 day(s).
| Time | Temp. | Humidity | Pressure | Rain* | Wind** | Luminosity | Snow |
|---|---|---|---|---|---|---|---|
| 1777210724 | 25° C | 78% | 1012 hPa | 0 mm | - | 389 W/m² | - |
| 1777210419 | 25° C | 78% | 1012.3 hPa | 0 mm | - | 193 W/m² | - |
| 1777210116 | 25° C | 79% | 1012.1 hPa | 0 mm | - | 224 W/m² | - |
| 1777209812 | 24.44° C | 80% | 1012 hPa | 0 mm | - | 346 W/m² | - |
| 1777209508 | 23.89° C | 80% | 1011.8 hPa | 0 mm | - | 304 W/m² | - |
| 1777209204 | 23.89° C | 82% | 1011.9 hPa | 0 mm | - | 109 W/m² | - |
| 1777208901 | 23.89° C | 82% | 1012.1 hPa | 0 mm | - | 161 W/m² | - |
| 1777208597 | 23.33° C | 83% | 1012 hPa | 0 mm | - | 189 W/m² | - |
| 1777208293 | 23.89° C | 82% | 1012.1 hPa | 0 mm | - | 142 W/m² | - |
| 1777207989 | 23.89° C | 81% | 1011.9 hPa | 0 mm | - | 147 W/m² | - |
| 1777207685 | 23.33° C | 84% | 1011.8 hPa | 0 mm | - | 248 W/m² | - |
| 1777207380 | 22.78° C | 84% | 1011.9 hPa | 0 mm | - | 199 W/m² | - |
| 1777207079 | 22.78° C | 84% | 1012.1 hPa | 0 mm | - | 90 W/m² | - |
| 1777206776 | 22.78° C | 85% | 1011.9 hPa | 0 mm | - | 178 W/m² | - |
| 1777206476 | 22.78° C | 86% | 1012.1 hPa | 0 mm | - | 140 W/m² | - |
| 1777206171 | 22.22° C | 88% | 1011.9 hPa | 0 mm | - | 118 W/m² | - |
| 1777205867 | 22.22° C | 89% | 1011.8 hPa | 0 mm | - | 93 W/m² | - |
| 1777205564 | 21.67° C | 90% | 1011.7 hPa | 0 mm | - | 82 W/m² | - |
| 1777205261 | 21.67° C | 91% | 1011.7 hPa | 0 mm | - | 72 W/m² | - |
| 1777204957 | 21.11° C | 92% | 1011.6 hPa | 0 mm | - | 67 W/m² | - |
| 1777204652 | 20.56° C | 93% | 1011.8 hPa | 0 mm | - | 64 W/m² | - |
* Rain latest hour (hover to see other rain measurements)
** Current wind speed in m/s (hover to see current wind gust speed)